createdAt,value
2019-04-07T00:00:53.093Z,5.85
2019-04-07T00:01:53.000Z,5.83
2019-04-07T00:02:52.976Z,6.00
2019-04-07T00:03:53.270Z,6.03
2019-04-07T00:04:53.454Z,6.04
2019-04-07T00:05:52.925Z,6.04
2019-04-07T00:06:53.271Z,6.00
2019-04-07T00:07:53.035Z,5.85
2019-04-07T00:08:52.751Z,5.89
2019-04-07T00:09:52.699Z,5.99
2019-04-07T00:10:52.852Z,5.83
2019-04-07T00:11:53.497Z,5.89
2019-04-07T00:12:52.597Z,5.91
2019-04-07T00:13:52.575Z,5.97
2019-04-07T00:14:52.495Z,5.89
2019-04-07T00:15:52.482Z,5.85
2019-04-07T00:16:53.126Z,5.99
2019-04-07T00:17:53.141Z,5.86
2019-04-07T00:18:52.411Z,5.89
2019-04-07T00:19:52.338Z,5.76
2019-04-07T00:20:52.850Z,5.67
2019-04-07T00:21:52.213Z,5.67
2019-04-07T00:22:52.329Z,5.65
2019-04-07T00:23:52.157Z,5.65
2019-04-07T00:24:52.088Z,5.64
2019-04-07T00:25:52.082Z,5.71
2019-04-07T00:26:52.459Z,5.76
2019-04-07T00:27:51.982Z,5.75
2019-04-07T00:28:52.001Z,5.65
2019-04-07T00:29:52.675Z,5.58
2019-04-07T00:30:51.947Z,5.45
2019-04-07T00:31:52.297Z,5.30
2019-04-07T00:32:52.030Z,5.21
2019-04-07T00:33:51.772Z,5.15
2019-04-07T00:34:53.303Z,5.27
2019-04-07T00:35:52.062Z,5.28
2019-04-07T00:36:52.182Z,5.30
2019-04-07T00:37:51.751Z,5.21
2019-04-07T00:38:51.597Z,5.27
2019-04-07T00:39:51.601Z,5.15
2019-04-07T00:40:51.508Z,5.24
2019-04-07T00:41:51.829Z,5.20
2019-04-07T00:42:51.411Z,5.22
2019-04-07T00:43:51.796Z,5.30
2019-04-07T00:44:51.311Z,5.35
2019-04-07T00:45:51.315Z,5.39
2019-04-07T00:46:51.244Z,5.42
2019-04-07T00:47:51.444Z,5.43
2019-04-07T00:48:51.227Z,5.35
2019-04-07T00:49:51.262Z,5.28
2019-04-07T00:50:51.290Z,5.39
2019-04-07T00:51:51.375Z,5.33
2019-04-07T00:52:51.322Z,5.31
2019-04-07T00:53:51.027Z,5.22
2019-04-07T00:54:51.326Z,5.25
2019-04-07T00:55:50.883Z,5.15
2019-04-07T00:56:51.150Z,5.17
2019-04-07T00:57:50.863Z,5.20
2019-04-07T00:58:50.761Z,5.20
2019-04-07T00:59:50.718Z,5.15
2019-04-07T01:00:50.743Z,5.09
2019-04-07T01:01:50.648Z,5.10
2019-04-07T01:02:50.601Z,5.12
2019-04-07T01:03:50.584Z,5.10
2019-04-07T01:04:50.644Z,4.96
2019-04-07T01:05:51.063Z,5.03
2019-04-07T01:06:50.437Z,5.04
2019-04-07T01:07:50.943Z,5.09
2019-04-07T01:08:50.361Z,5.03
2019-04-07T01:09:50.752Z,5.02
2019-04-07T01:10:50.836Z,5.04
2019-04-07T01:11:50.750Z,4.92
2019-04-07T01:12:50.225Z,4.91
2019-04-07T01:13:50.576Z,4.88
2019-04-07T01:14:50.143Z,4.91
2019-04-07T01:15:50.611Z,4.82
2019-04-07T01:16:50.737Z,4.73
2019-04-07T01:17:50.188Z,4.75
2019-04-07T01:18:50.235Z,4.73
2019-04-07T01:19:49.940Z,4.72
2019-04-07T01:20:49.968Z,4.77
2019-04-07T01:21:49.992Z,4.67
2019-04-07T01:22:50.143Z,4.72
2019-04-07T01:23:50.205Z,4.75
2019-04-07T01:24:49.730Z,4.73
2019-04-07T01:25:50.070Z,4.70
2019-04-07T01:26:49.768Z,4.86
2019-04-07T01:27:50.030Z,4.66
2019-04-07T01:28:49.541Z,4.69
2019-04-07T01:29:49.486Z,4.85
2019-04-07T01:30:49.495Z,4.91
2019-04-07T01:31:49.500Z,4.58
2019-04-07T01:32:51.338Z,4.65
2019-04-07T01:33:49.454Z,4.62
2019-04-07T01:34:49.412Z,4.60
2019-04-07T01:35:50.350Z,4.70
2019-04-07T01:36:49.232Z,4.58
2019-04-07T01:37:49.480Z,4.69
2019-04-07T01:38:49.174Z,4.66
2019-04-07T01:39:49.238Z,4.58
2019-04-07T01:40:49.302Z,4.48
2019-04-07T01:41:49.541Z,4.50
2019-04-07T01:42:48.999Z,4.42
2019-04-07T01:43:49.394Z,4.32
2019-04-07T01:44:49.691Z,4.12
2019-04-07T01:45:48.880Z,4.08
2019-04-07T01:46:49.207Z,4.18
2019-04-07T01:47:48.800Z,4.26
2019-04-07T01:48:48.729Z,4.26
2019-04-07T01:49:48.700Z,4.37
2019-04-07T01:50:49.278Z,4.33
2019-04-07T01:51:48.783Z,4.24
2019-04-07T01:52:49.190Z,4.14
2019-04-07T01:53:48.609Z,4.16
2019-04-07T01:54:48.497Z,4.14
2019-04-07T01:55:48.468Z,4.22
2019-04-07T01:56:49.009Z,4.34
2019-04-07T01:57:48.637Z,4.37
2019-04-07T01:58:48.376Z,4.33
2019-04-07T01:59:48.325Z,4.32
2019-04-07T02:00:48.410Z,4.29
2019-04-07T02:01:48.249Z,4.37
2019-04-07T02:02:48.733Z,4.42
2019-04-07T02:03:48.415Z,4.52
2019-04-07T02:04:48.091Z,4.51
2019-04-07T02:05:58.376Z,4.41
2019-04-07T02:06:48.663Z,4.42
2019-04-07T02:07:48.004Z,4.45
2019-04-07T02:08:47.934Z,4.27
2019-04-07T02:09:47.921Z,4.30
2019-04-07T02:10:47.845Z,4.37
2019-04-07T02:11:47.916Z,4.32
2019-04-07T02:12:47.856Z,4.29
2019-04-07T02:13:48.287Z,4.18
2019-04-07T02:14:47.741Z,4.12
2019-04-07T02:15:48.190Z,4.22
2019-04-07T02:16:47.620Z,4.24
2019-04-07T02:17:48.122Z,4.12
2019-04-07T02:18:48.108Z,4.14
2019-04-07T02:19:48.223Z,4.16
2019-04-07T02:20:47.613Z,4.11
2019-04-07T02:21:47.551Z,4.18
2019-04-07T02:22:47.383Z,4.14
2019-04-07T02:23:47.338Z,4.04
2019-04-07T02:24:47.292Z,3.90
2019-04-07T02:25:47.273Z,3.93
2019-04-07T02:26:47.238Z,3.94
2019-04-07T02:27:47.823Z,3.98
2019-04-07T02:28:47.277Z,4.05
2019-04-07T02:29:47.779Z,4.05
2019-04-07T02:30:48.028Z,4.02
2019-04-07T02:31:47.193Z,3.88
2019-04-07T02:32:47.148Z,3.76
2019-04-07T02:33:47.020Z,3.86
2019-04-07T02:34:46.878Z,3.84
2019-04-07T02:35:46.852Z,3.72
2019-04-07T02:36:46.802Z,3.70
2019-04-07T02:37:46.781Z,3.68
2019-04-07T02:38:46.735Z,3.73
2019-04-07T02:39:46.804Z,3.57
2019-04-07T02:40:47.307Z,3.60
2019-04-07T02:41:46.689Z,3.55
2019-04-07T02:42:46.559Z,3.60
2019-04-07T02:43:46.685Z,3.58
2019-04-07T02:44:46.598Z,3.47
2019-04-07T02:45:46.477Z,3.52
2019-04-07T02:46:46.415Z,3.73
2019-04-07T02:47:46.810Z,3.73
2019-04-07T02:48:46.823Z,3.51
2019-04-07T02:49:46.287Z,3.45
2019-04-07T02:50:46.554Z,3.51
2019-04-07T02:51:46.205Z,3.54
2019-04-07T02:52:46.192Z,3.48
2019-04-07T02:53:46.988Z,3.47
2019-04-07T02:54:46.389Z,3.48
2019-04-07T02:55:46.044Z,3.26
2019-04-07T02:56:46.197Z,3.23
2019-04-07T02:57:47.421Z,3.42
2019-04-07T02:58:46.328Z,3.47
2019-04-07T02:59:46.411Z,3.48
2019-04-07T03:00:46.792Z,3.43
2019-04-07T03:01:46.725Z,3.29
2019-04-07T03:02:45.813Z,3.29
2019-04-07T03:03:46.490Z,3.47
2019-04-07T03:04:46.081Z,3.60
2019-04-07T03:05:45.673Z,3.51
2019-04-07T03:06:50.001Z,3.52
2019-04-07T03:07:47.239Z,3.55
2019-04-07T03:08:45.510Z,3.52
2019-04-07T03:09:45.553Z,3.50
2019-04-07T03:10:46.039Z,3.52
2019-04-07T03:11:45.404Z,3.51
2019-04-07T03:12:45.407Z,3.57
2019-04-07T03:13:45.284Z,3.45
2019-04-07T03:14:45.620Z,3.42
2019-04-07T03:15:46.178Z,3.31
2019-04-07T03:16:45.185Z,3.33
2019-04-07T03:17:45.816Z,3.43
2019-04-07T03:18:45.121Z,3.45
2019-04-07T03:19:45.420Z,3.50
2019-04-07T03:20:45.494Z,3.40
2019-04-07T03:21:45.782Z,3.39
2019-04-07T03:22:45.790Z,3.32
2019-04-07T03:23:45.794Z,3.26
2019-04-07T03:24:44.892Z,3.35
2019-04-07T03:25:45.189Z,3.39
2019-04-07T03:26:44.788Z,3.40
2019-04-07T03:27:44.725Z,3.40
2019-04-07T03:28:44.697Z,3.43
2019-04-07T03:29:45.272Z,3.40
2019-04-07T03:30:45.870Z,3.40
2019-04-07T03:31:46.734Z,3.48
2019-04-07T03:32:46.741Z,3.43
2019-04-07T03:33:48.176Z,3.42
2019-04-07T03:34:44.907Z,3.24
2019-04-07T03:35:46.112Z,3.31
2019-04-07T03:37:12.600Z,3.39
2019-04-07T03:37:47.190Z,3.47
2019-04-07T03:38:44.269Z,3.45
2019-04-07T03:39:44.246Z,3.40
2019-04-07T03:40:44.304Z,3.31
2019-04-07T03:41:44.171Z,3.50
2019-04-07T03:42:44.146Z,3.45
2019-04-07T03:43:44.141Z,3.40
2019-04-07T03:44:44.862Z,3.48
2019-04-07T03:45:43.975Z,3.31
2019-04-07T03:46:45.521Z,3.45
2019-04-07T03:47:43.897Z,3.39
2019-04-07T03:48:44.504Z,3.40
2019-04-07T03:49:43.810Z,3.40
2019-04-07T03:50:44.338Z,3.39
2019-04-07T03:51:44.009Z,3.28
2019-04-07T03:52:44.859Z,3.28
2019-04-07T03:53:43.630Z,3.26
2019-04-07T03:54:43.638Z,3.20
2019-04-07T03:55:43.840Z,3.20
2019-04-07T03:56:43.653Z,3.23
2019-04-07T03:57:43.516Z,3.20
2019-04-07T03:58:44.173Z,3.21
2019-04-07T03:59:43.423Z,3.08
2019-04-07T04:00:43.491Z,3.08
2019-04-07T04:01:43.657Z,3.05
2019-04-07T04:02:44.255Z,3.03
2019-04-07T04:03:44.031Z,2.96
2019-04-07T04:04:43.656Z,3.05
2019-04-07T04:05:43.398Z,3.03
2019-04-07T04:06:43.108Z,3.06
2019-04-07T04:07:44.114Z,3.11
2019-04-07T04:08:43.050Z,3.10
2019-04-07T04:09:43.024Z,3.11
2019-04-07T04:10:43.571Z,3.11
2019-04-07T04:11:43.675Z,3.14
2019-04-07T04:12:43.606Z,3.05
2019-04-07T04:13:44.273Z,2.99
2019-04-07T04:14:43.231Z,2.85
2019-04-07T04:15:43.525Z,2.78
2019-04-07T04:16:42.726Z,2.53
2019-04-07T04:17:42.683Z,2.46
2019-04-07T04:18:42.722Z,2.45
2019-04-07T04:19:42.811Z,2.53
2019-04-07T04:20:42.588Z,2.36
2019-04-07T04:21:44.263Z,2.43
2019-04-07T04:22:43.154Z,2.35
2019-04-07T04:23:43.551Z,2.42
2019-04-07T04:24:43.621Z,2.56
2019-04-07T04:25:42.901Z,2.54
2019-04-07T04:26:42.312Z,2.56
2019-04-07T04:27:43.030Z,2.54
2019-04-07T04:28:42.964Z,2.57
2019-04-07T04:29:42.246Z,2.61
2019-04-07T04:30:42.138Z,2.81
2019-04-07T04:31:42.233Z,2.79
2019-04-07T04:32:42.051Z,2.84
2019-04-07T04:33:42.138Z,2.95
2019-04-07T04:34:41.971Z,2.84
2019-04-07T04:35:42.730Z,2.87
2019-04-07T04:36:41.873Z,2.82
2019-04-07T04:37:48.161Z,2.92
2019-04-07T04:38:41.921Z,2.85
2019-04-07T04:39:41.899Z,2.89
2019-04-07T04:40:42.590Z,2.82
2019-04-07T04:41:42.476Z,2.85
2019-04-07T04:42:42.071Z,2.81
2019-04-07T04:43:42.323Z,2.79
2019-04-07T04:44:42.251Z,2.85
2019-04-07T04:45:41.501Z,2.77
2019-04-07T04:46:41.485Z,2.81
2019-04-07T04:47:41.433Z,2.78
2019-04-07T04:48:41.383Z,2.79
2019-04-07T04:49:41.720Z,2.78
2019-04-07T04:50:42.041Z,2.82
2019-04-07T04:51:42.450Z,2.78
2019-04-07T04:52:41.226Z,2.81
2019-04-07T04:53:42.297Z,2.79
2019-04-07T04:54:42.057Z,2.85
2019-04-07T04:55:41.148Z,3.02
2019-04-07T04:56:41.427Z,3.00
2019-04-07T04:57:41.062Z,2.97
2019-04-07T04:58:40.959Z,2.92
2019-04-07T04:59:40.974Z,2.85
2019-04-07T05:00:41.459Z,2.87
2019-04-07T05:01:40.850Z,2.75
2019-04-07T05:02:41.340Z,2.81
2019-04-07T05:03:40.761Z,2.82
2019-04-07T05:04:40.762Z,2.85
2019-04-07T05:05:41.396Z,2.74
2019-04-07T05:06:41.318Z,2.67
2019-04-07T05:07:51.709Z,2.61
2019-04-07T05:08:40.577Z,2.63
2019-04-07T05:09:46.635Z,2.61
2019-04-07T05:10:40.623Z,2.82
2019-04-07T05:11:40.820Z,2.84
2019-04-07T05:12:40.405Z,2.90
2019-04-07T05:13:41.133Z,2.79
2019-04-07T05:14:40.351Z,2.74
2019-04-07T05:15:40.325Z,2.81
2019-04-07T05:16:40.228Z,2.81
2019-04-07T05:17:40.326Z,2.78
2019-04-07T05:18:40.157Z,2.84
2019-04-07T05:19:42.803Z,2.84
2019-04-07T05:20:40.073Z,2.77
2019-04-07T05:21:40.456Z,2.81
2019-04-07T05:22:40.007Z,2.82
2019-04-07T05:23:40.508Z,2.89
2019-04-07T05:24:40.068Z,2.96
2019-04-07T05:25:40.334Z,3.05
2019-04-07T05:26:40.482Z,3.26
2019-04-07T05:27:40.361Z,3.20
2019-04-07T05:28:39.744Z,3.26
2019-04-07T05:29:40.125Z,3.26
2019-04-07T05:30:40.232Z,3.24
2019-04-07T05:31:40.147Z,3.24
2019-04-07T05:32:39.991Z,3.29
2019-04-07T05:33:39.954Z,3.29
2019-04-07T05:34:40.182Z,3.28
2019-04-07T05:35:39.550Z,3.24
2019-04-07T05:36:41.345Z,3.35
2019-04-07T05:37:39.446Z,3.43
2019-04-07T05:38:39.543Z,3.55
2019-04-07T05:39:39.499Z,3.62
2019-04-07T05:40:39.956Z,3.70
2019-04-07T05:41:39.261Z,3.78
2019-04-07T05:42:39.165Z,3.72
2019-04-07T05:43:39.162Z,3.80
2019-04-07T05:44:39.739Z,3.87
2019-04-07T05:45:39.065Z,3.93
2019-04-07T05:46:42.321Z,3.97
2019-04-07T05:47:43.531Z,4.04
2019-04-07T05:48:39.164Z,4.04
2019-04-07T05:49:38.963Z,4.04
2019-04-07T05:50:39.513Z,4.12
2019-04-07T05:51:39.030Z,4.12
2019-04-07T05:52:40.511Z,4.20
2019-04-07T05:53:38.873Z,4.09
2019-04-07T05:54:39.384Z,4.30
2019-04-07T05:55:39.297Z,4.27
2019-04-07T05:56:39.223Z,4.32
2019-04-07T05:57:38.778Z,4.47
2019-04-07T05:58:40.823Z,4.62
2019-04-07T05:59:39.935Z,4.86
2019-04-07T06:00:39.120Z,4.99
2019-04-07T06:01:39.035Z,5.09
2019-04-07T06:02:38.387Z,5.04
2019-04-07T06:03:41.275Z,5.09
2019-04-07T06:04:38.279Z,5.09
2019-04-07T06:05:38.506Z,5.24
2019-04-07T06:06:41.467Z,5.20
2019-04-07T06:07:38.179Z,5.28
2019-04-07T06:08:40.060Z,5.39
2019-04-07T06:09:38.073Z,5.39
2019-04-07T06:10:38.709Z,5.51
2019-04-07T06:11:38.703Z,5.58
2019-04-07T06:12:40.862Z,5.65
2019-04-07T06:13:38.042Z,5.63
2019-04-07T06:14:38.882Z,5.78
2019-04-07T06:15:38.177Z,6.06
2019-04-07T06:16:37.866Z,6.25
2019-04-07T06:17:37.923Z,6.30
2019-04-07T06:18:37.951Z,6.25
2019-04-07T06:19:41.135Z,6.21
2019-04-07T06:20:37.969Z,6.19
2019-04-07T06:21:37.874Z,6.21
2019-04-07T06:22:38.020Z,6.30
2019-04-07T06:23:37.616Z,6.28
2019-04-07T06:24:37.504Z,6.27
2019-04-07T06:25:41.552Z,6.18
2019-04-07T06:26:40.906Z,6.28
2019-04-07T06:27:38.284Z,6.28
2019-04-07T06:28:38.071Z,6.40
2019-04-07T06:29:37.790Z,6.31
2019-04-07T06:30:37.938Z,6.43
2019-04-07T06:31:37.228Z,6.51
2019-04-07T06:32:38.482Z,6.56
2019-04-07T06:33:38.209Z,6.64
2019-04-07T06:34:39.740Z,6.69
2019-04-07T06:35:37.919Z,6.87
2019-04-07T06:36:37.541Z,7.10
2019-04-07T06:37:37.388Z,7.20
2019-04-07T06:38:41.549Z,7.49
2019-04-07T06:39:37.376Z,7.61
2019-04-07T06:40:37.280Z,7.58
2019-04-07T06:41:36.844Z,7.61
2019-04-07T06:42:37.440Z,7.57
2019-04-07T06:43:38.416Z,7.46
2019-04-07T06:44:36.844Z,7.63
2019-04-07T06:45:36.722Z,7.68
2019-04-07T06:46:36.884Z,7.77
2019-04-07T06:47:37.166Z,7.72
2019-04-07T06:48:39.717Z,7.93
2019-04-07T06:49:37.078Z,7.98
2019-04-07T06:50:47.730Z,8.15
2019-04-07T06:51:37.201Z,8.52
2019-04-07T06:52:40.604Z,8.91
2019-04-07T06:53:36.462Z,9.31
2019-04-07T06:54:36.394Z,9.83
2019-04-07T06:55:36.349Z,10.27
2019-04-07T06:56:36.996Z,10.85
2019-04-07T06:57:37.736Z,11.47
2019-04-07T06:58:41.349Z,12.49
2019-04-07T06:59:36.176Z,13.07
2019-04-07T07:00:36.462Z,13.59
2019-04-07T07:01:36.161Z,14.39
2019-04-07T07:02:36.084Z,14.75
2019-04-07T07:03:38.824Z,14.62
2019-04-07T07:04:36.726Z,15.06
2019-04-07T07:05:36.261Z,15.44
2019-04-07T07:06:35.956Z,16.00
2019-04-07T07:07:36.391Z,16.41
2019-04-07T07:08:44.518Z,16.78
2019-04-07T07:09:35.969Z,17.22
2019-04-07T07:10:39.004Z,17.22
2019-04-07T07:11:40.698Z,17.33
2019-04-07T07:12:38.802Z,17.59
2019-04-07T07:13:36.729Z,17.84
2019-04-07T07:14:43.291Z,18.17
2019-04-07T07:15:36.469Z,17.37
2019-04-07T07:16:36.169Z,17.66
2019-04-07T07:17:35.655Z,18.07
2019-04-07T07:18:35.776Z,18.60
2019-04-07T07:19:35.591Z,18.81
2019-04-07T07:20:36.124Z,19.18
2019-04-07T07:21:38.711Z,19.40
2019-04-07T07:22:35.737Z,19.36
2019-04-07T07:23:35.450Z,19.22
2019-04-07T07:24:35.899Z,18.88
2019-04-07T07:25:36.302Z,18.72
2019-04-07T07:26:35.591Z,18.48
2019-04-07T07:27:38.910Z,18.26
2019-04-07T07:28:36.028Z,17.86
2019-04-07T07:29:35.349Z,17.63
2019-04-07T07:30:35.853Z,17.82
2019-04-07T07:31:35.779Z,18.05
2019-04-07T07:32:37.262Z,18.47
2019-04-07T07:33:38.926Z,18.66
2019-04-07T07:34:35.841Z,18.70
2019-04-07T07:35:35.148Z,18.87
2019-04-07T07:36:35.125Z,18.88
2019-04-07T07:37:35.359Z,18.82
2019-04-07T07:38:35.092Z,18.51
2019-04-07T07:39:35.116Z,18.75
2019-04-07T07:40:35.219Z,18.65
2019-04-07T07:41:35.615Z,18.94
2019-04-07T07:42:35.545Z,19.36
2019-04-07T07:43:35.000Z,19.44
2019-04-07T07:44:38.168Z,19.44
2019-04-07T07:45:34.975Z,19.26
2019-04-07T07:46:34.923Z,19.07
2019-04-07T07:47:34.875Z,18.87
2019-04-07T07:48:35.601Z,18.92
2019-04-07T07:49:39.819Z,19.26
2019-04-07T07:50:38.083Z,19.23
2019-04-07T07:51:37.653Z,19.84
2019-04-07T07:52:35.152Z,19.94
2019-04-07T07:53:34.755Z,20.11
2019-04-07T07:54:35.224Z,20.32
2019-04-07T07:55:37.664Z,20.57
2019-04-07T07:56:34.707Z,21.07
2019-04-07T07:57:35.458Z,20.99
2019-04-07T07:58:35.499Z,21.12
2019-04-07T07:59:37.974Z,21.44
2019-04-07T08:00:40.022Z,20.55
2019-04-07T08:01:34.736Z,20.24
2019-04-07T08:02:35.184Z,20.13
2019-04-07T08:03:35.118Z,19.91
2019-04-07T08:04:34.608Z,19.61
2019-04-07T08:05:34.669Z,19.91
2019-04-07T08:06:34.641Z,19.74
2019-04-07T08:07:34.778Z,19.95
2019-04-07T08:08:35.085Z,19.59
2019-04-07T08:09:34.405Z,19.18
2019-04-07T08:10:35.016Z,19.14
2019-04-07T08:11:34.733Z,18.90
2019-04-07T08:12:34.924Z,19.21
2019-04-07T08:13:41.561Z,19.63
2019-04-07T08:14:34.922Z,19.83
2019-04-07T08:15:34.620Z,19.84
2019-04-07T08:16:34.641Z,20.02
2019-04-07T08:17:34.249Z,20.36
2019-04-07T08:18:36.176Z,20.50
2019-04-07T08:19:34.208Z,20.84
2019-04-07T08:20:34.886Z,20.58
2019-04-07T08:21:34.252Z,20.72
2019-04-07T08:22:40.565Z,20.87
2019-04-07T08:23:34.168Z,20.06
2019-04-07T08:24:34.080Z,19.62
2019-04-07T08:25:34.666Z,19.96
2019-04-07T08:26:34.046Z,20.05
2019-04-07T08:27:34.402Z,19.77
2019-04-07T08:28:35.893Z,19.62
2019-04-07T08:29:37.135Z,19.88
2019-04-07T08:30:33.980Z,19.86
2019-04-07T08:31:34.794Z,20.01
2019-04-07T08:32:34.287Z,20.13
2019-04-07T08:33:34.276Z,20.24
2019-04-07T08:34:33.856Z,19.92
2019-04-07T08:35:38.134Z,20.11
2019-04-07T08:36:33.893Z,19.87
2019-04-07T08:37:34.091Z,19.66
2019-04-07T08:38:34.369Z,19.44
2019-04-07T08:39:35.460Z,19.66
2019-04-07T08:40:36.502Z,19.99
2019-04-07T08:41:33.974Z,19.77
2019-04-07T08:42:33.683Z,19.94
2019-04-07T08:43:34.078Z,20.21
2019-04-07T08:44:34.407Z,20.39
2019-04-07T08:45:33.626Z,20.72
2019-04-07T08:46:39.856Z,20.95
2019-04-07T08:47:34.353Z,20.32
2019-04-07T08:48:33.560Z,19.77
2019-04-07T08:49:35.329Z,19.91
2019-04-07T08:50:34.274Z,20.10
2019-04-07T08:51:36.151Z,20.55
2019-04-07T08:52:34.306Z,20.43
2019-04-07T08:53:34.162Z,20.50
2019-04-07T08:54:33.467Z,20.98
2019-04-07T08:55:33.564Z,21.54
2019-04-07T08:56:34.128Z,21.68
2019-04-07T08:57:33.419Z,22.35
2019-04-07T08:58:37.910Z,22.64
2019-04-07T08:59:33.323Z,22.12
2019-04-07T09:00:33.616Z,21.44
2019-04-07T09:01:33.340Z,21.16
2019-04-07T09:02:33.268Z,21.04
2019-04-07T09:03:33.256Z,21.35
2019-04-07T09:04:33.214Z,21.46
2019-04-07T09:05:33.494Z,21.80
2019-04-07T09:06:33.263Z,22.02
2019-04-07T09:07:34.240Z,21.83
2019-04-07T09:08:36.106Z,21.96
2019-04-07T09:09:36.314Z,21.98
2019-04-07T09:10:34.347Z,22.35
2019-04-07T09:11:33.575Z,22.35
2019-04-07T09:12:33.898Z,22.33
2019-04-07T09:13:34.135Z,22.52
2019-04-07T09:14:33.000Z,22.86
2019-04-07T09:15:33.005Z,22.67
2019-04-07T09:16:33.674Z,22.31
2019-04-07T09:17:40.101Z,22.18
2019-04-07T09:18:33.475Z,22.37
2019-04-07T09:19:35.013Z,22.45
2019-04-07T09:20:32.896Z,22.77
2019-04-07T09:21:38.722Z,22.55
2019-04-07T09:22:32.871Z,22.47
2019-04-07T09:23:32.873Z,23.02
2019-04-07T09:24:33.533Z,22.76
2019-04-07T09:25:33.184Z,22.57
2019-04-07T09:26:33.318Z,23.04
2019-04-07T09:27:32.769Z,22.65
2019-04-07T09:28:33.178Z,22.57
2019-04-07T09:29:32.706Z,21.44
2019-04-07T09:30:32.725Z,21.62
2019-04-07T09:31:33.257Z,20.92
2019-04-07T09:32:33.413Z,20.70
2019-04-07T09:33:34.801Z,21.07
2019-04-07T09:34:33.418Z,21.86
2019-04-07T09:35:33.212Z,21.92
2019-04-07T09:36:33.556Z,21.92
2019-04-07T09:37:33.344Z,22.42
2019-04-07T09:38:33.334Z,22.07
2019-04-07T09:39:50.655Z,21.84
2019-04-07T09:40:32.494Z,22.36
2019-04-07T09:41:32.468Z,22.40
2019-04-07T09:42:32.457Z,22.07
2019-04-07T09:43:32.438Z,22.68
2019-04-07T09:44:36.346Z,22.10
2019-04-07T09:45:32.440Z,22.45
2019-04-07T09:46:32.550Z,22.70
2019-04-07T09:47:32.352Z,22.94
2019-04-07T09:48:33.258Z,23.05
2019-04-07T09:49:32.401Z,22.83
2019-04-07T09:50:32.435Z,22.62
2019-04-07T09:51:33.064Z,22.46
2019-04-07T09:52:32.293Z,22.65
2019-04-07T09:53:32.261Z,22.57
2019-04-07T09:54:32.419Z,22.70
2019-04-07T09:55:32.181Z,22.07
2019-04-07T09:56:33.480Z,21.84
2019-04-07T09:57:35.468Z,22.09
2019-04-07T09:58:32.146Z,22.21
2019-04-07T09:59:32.778Z,21.53
2019-04-07T10:00:32.128Z,21.64
2019-04-07T10:01:32.939Z,22.09
2019-04-07T10:02:34.724Z,22.05
2019-04-07T10:03:32.031Z,22.39
2019-04-07T10:04:32.029Z,22.39
2019-04-07T10:05:32.000Z,22.60
2019-04-07T10:06:31.968Z,22.72
2019-04-07T10:07:33.319Z,22.64
2019-04-07T10:08:32.655Z,22.55
2019-04-07T10:09:32.230Z,22.00
2019-04-07T10:10:31.964Z,21.82
2019-04-07T10:11:31.843Z,21.75
2019-04-07T10:12:32.111Z,22.00
2019-04-07T10:13:32.493Z,22.46
2019-04-07T10:14:31.806Z,22.75
2019-04-07T10:15:31.790Z,22.47
2019-04-07T10:16:33.863Z,22.05
2019-04-07T10:17:31.834Z,21.88
2019-04-07T10:18:33.683Z,22.68
2019-04-07T10:19:31.742Z,22.73
2019-04-07T10:20:32.530Z,22.46
2019-04-07T10:21:32.407Z,22.54
2019-04-07T10:22:32.053Z,22.52
2019-04-07T10:23:32.133Z,22.75
2019-04-07T10:24:32.519Z,22.47
2019-04-07T10:25:31.580Z,22.52
2019-04-07T10:26:31.542Z,22.67
2019-04-07T10:27:31.517Z,22.91
2019-04-07T10:28:32.149Z,22.76
2019-04-07T10:29:31.880Z,22.28
2019-04-07T10:30:31.635Z,21.88
2019-04-07T10:31:31.642Z,21.61
2019-04-07T10:32:31.885Z,21.53
2019-04-07T10:33:31.616Z,21.32
2019-04-07T10:34:31.994Z,21.67
2019-04-07T10:35:31.355Z,21.49
2019-04-07T10:36:31.890Z,21.83
2019-04-07T10:37:31.499Z,21.83
2019-04-07T10:38:31.722Z,22.43
2019-04-07T10:39:31.309Z,22.33
2019-04-07T10:40:31.265Z,23.00
2019-04-07T10:41:31.255Z,23.10
2019-04-07T10:42:31.227Z,23.65
2019-04-07T10:43:31.370Z,23.72
2019-04-07T10:44:31.464Z,23.32
2019-04-07T10:45:31.169Z,23.68
2019-04-07T10:46:31.126Z,23.23
2019-04-07T10:47:31.113Z,22.79
2019-04-07T10:48:31.708Z,22.91
2019-04-07T10:49:31.116Z,23.19
2019-04-07T10:50:31.415Z,23.57
2019-04-07T10:51:31.894Z,23.28
2019-04-07T10:52:31.444Z,23.47
2019-04-07T10:53:32.234Z,23.25
2019-04-07T10:54:31.419Z,23.04
2019-04-07T10:55:30.939Z,23.04
2019-04-07T10:56:30.937Z,23.35
2019-04-07T10:57:30.899Z,23.00
2019-04-07T10:58:31.291Z,22.82
2019-04-07T10:59:30.886Z,22.39
2019-04-07T11:00:31.283Z,22.43
2019-04-07T11:01:31.083Z,22.00
2019-04-07T11:02:31.435Z,21.37
2019-04-07T11:03:30.775Z,21.47
2019-04-07T11:04:30.732Z,20.77
2019-04-07T11:05:31.321Z,21.13
2019-04-07T11:06:31.710Z,21.61
2019-04-07T11:07:30.676Z,20.57
2019-04-07T11:08:30.953Z,20.18
2019-04-07T11:09:30.645Z,20.08
2019-04-07T11:10:36.668Z,19.81
2019-04-07T11:11:31.398Z,20.02
2019-04-07T11:12:30.596Z,19.98
2019-04-07T11:13:30.936Z,20.20
2019-04-07T11:14:30.523Z,20.79
2019-04-07T11:15:30.705Z,21.82
2019-04-07T11:16:31.231Z,22.64
2019-04-07T11:17:30.439Z,22.97
2019-04-07T11:18:30.448Z,22.76
2019-04-07T11:19:31.062Z,22.83
2019-04-07T11:20:30.393Z,23.19
2019-04-07T11:21:30.461Z,23.15
2019-04-07T11:22:30.878Z,22.80
2019-04-07T11:23:30.320Z,23.01
2019-04-07T11:24:31.475Z,23.20
2019-04-07T11:25:30.276Z,22.94
2019-04-07T11:26:30.872Z,22.37
2019-04-07T11:27:31.113Z,21.58
2019-04-07T11:28:30.643Z,21.19
2019-04-07T11:29:30.167Z,21.14
2019-04-07T11:30:30.776Z,21.04
2019-04-07T11:31:30.961Z,20.31
2019-04-07T11:32:30.489Z,20.41
2019-04-07T11:33:30.137Z,20.94
2019-04-07T11:34:30.454Z,20.21
2019-04-07T11:35:31.085Z,20.08
2019-04-07T11:36:30.015Z,20.42
2019-04-07T11:37:30.858Z,20.41
2019-04-07T11:38:29.987Z,20.57
2019-04-07T11:39:30.723Z,20.58
2019-04-07T11:40:41.556Z,20.02
2019-04-07T11:41:30.611Z,19.83
2019-04-07T11:42:30.597Z,19.81
2019-04-07T11:43:30.488Z,19.19
2019-04-07T11:44:29.842Z,19.78
2019-04-07T11:45:29.803Z,20.59
2019-04-07T11:46:30.508Z,21.09
2019-04-07T11:47:29.883Z,21.16
2019-04-07T11:48:29.731Z,21.42
2019-04-07T11:49:30.207Z,21.62
2019-04-07T11:50:29.917Z,21.80
2019-04-07T11:51:30.315Z,21.90
2019-04-07T11:52:29.650Z,21.90
2019-04-07T11:53:29.651Z,22.35
2019-04-07T11:54:29.609Z,22.31
2019-04-07T11:55:30.238Z,22.22
2019-04-07T11:56:29.632Z,21.54
2019-04-07T11:57:30.176Z,21.16
2019-04-07T11:58:32.299Z,21.27
2019-04-07T11:59:29.503Z,21.14
2019-04-07T12:00:30.028Z,20.94
2019-04-07T12:01:30.162Z,21.16
2019-04-07T12:02:29.422Z,21.79
2019-04-07T12:03:29.943Z,22.10
2019-04-07T12:04:29.518Z,22.37
2019-04-07T12:05:29.361Z,22.86
2019-04-07T12:06:29.975Z,22.91
2019-04-07T12:07:29.276Z,22.46
2019-04-07T12:08:33.556Z,21.96
2019-04-07T12:09:29.304Z,21.03
2019-04-07T12:10:29.994Z,20.36
2019-04-07T12:11:29.924Z,19.87
2019-04-07T12:12:29.977Z,19.62
2019-04-07T12:13:29.708Z,19.50
2019-04-07T12:14:29.135Z,19.99
2019-04-07T12:15:30.178Z,20.42
2019-04-07T12:16:30.530Z,20.36
2019-04-07T12:17:29.997Z,20.52
2019-04-07T12:18:29.773Z,20.33
2019-04-07T12:19:29.006Z,20.24
2019-04-07T12:20:33.491Z,20.36
2019-04-07T12:21:29.754Z,20.47
2019-04-07T12:22:28.938Z,20.59
2019-04-07T12:23:28.891Z,20.89
2019-04-07T12:24:30.647Z,20.58
2019-04-07T12:25:31.369Z,20.58
2019-04-07T12:26:28.833Z,20.61
2019-04-07T12:27:28.801Z,20.36
2019-04-07T12:28:28.828Z,20.91
2019-04-07T12:29:28.845Z,20.92
2019-04-07T12:30:28.739Z,20.55
2019-04-07T12:31:29.379Z,20.21
2019-04-07T12:32:29.243Z,20.06
2019-04-07T12:33:28.676Z,19.74
2019-04-07T12:34:28.752Z,19.54
2019-04-07T12:35:28.897Z,19.56
2019-04-07T12:36:30.718Z,20.08
2019-04-07T12:37:28.563Z,20.39
2019-04-07T12:38:28.518Z,20.16
2019-04-07T12:39:28.926Z,19.91
2019-04-07T12:40:28.994Z,20.10
2019-04-07T12:41:31.818Z,20.28
2019-04-07T12:42:29.911Z,20.43
2019-04-07T12:43:29.135Z,20.17
2019-04-07T12:44:28.961Z,20.06
2019-04-07T12:45:28.520Z,19.99
2019-04-07T12:46:28.967Z,19.84
2019-04-07T12:47:29.821Z,19.62
2019-04-07T12:48:30.683Z,19.77
2019-04-07T12:49:28.609Z,20.02
2019-04-07T12:50:28.212Z,20.41
2019-04-07T12:51:28.866Z,20.88
2019-04-07T12:52:30.818Z,21.34
2019-04-07T12:53:32.120Z,21.43
2019-04-07T12:54:28.812Z,21.67
2019-04-07T12:55:28.428Z,21.64
2019-04-07T12:56:31.672Z,21.44
2019-04-07T12:57:28.825Z,21.92
2019-04-07T12:58:28.005Z,22.05
2019-04-07T12:59:28.292Z,22.64
2019-04-07T13:00:28.829Z,23.13
2019-04-07T13:01:28.182Z,23.31
2019-04-07T13:02:28.543Z,23.63
2019-04-07T13:03:27.921Z,23.51
2019-04-07T13:04:28.455Z,23.68
2019-04-07T13:05:28.554Z,23.25
2019-04-07T13:06:27.795Z,21.96